Time;durP1;ratioP1;P1;durP2;ratioP2;P2;SDS_P1;SDS_P2;PMS_P1;PMS_P2;Temp;Humidity;BMP_temperature;BMP_pressure;BME280_temperature;BME280_humidity;BME280_pressure;Samples;Min_cycle;Max_cycle;Signal;HPM_P1;HPM_P2
2022/09/11 00:01:39;;;;;;;5.30;5.10;;;;;;;;;;4990484;28;20117;-70
2022/09/11 00:04:05;;;;;;;6.40;5.40;;;;;;;;;;4989936;28;20031;-71
2022/09/11 00:06:30;;;;;;;5.20;5.00;;;;;;;;;;4990527;28;20030;-71
2022/09/11 00:09:02;;;;;;;5.90;5.60;;;;;;;;;;4988560;28;20045;-71
2022/09/11 00:11:34;;;;;;;5.60;5.32;;;;;;;;;;4989048;28;20030;-71
2022/09/11 00:13:59;;;;;;;5.40;5.20;;;;;;;;;;4984568;28;20438;-71
2022/09/11 00:16:33;;;;;;;5.75;5.45;;;;;;;;;;4989887;28;20027;-71
2022/09/11 00:19:01;;;;;;;5.75;5.45;;;;;;;;;;4988022;28;20154;-71
2022/09/11 00:21:28;;;;;;;5.60;5.35;;;;;;;;;;4988302;28;20084;-71
2022/09/11 00:23:54;;;;;;;5.75;5.45;;;;;;;;;;4985986;28;20046;-71
2022/09/11 00:26:20;;;;;;;5.65;5.35;;;;;;;;;;4987054;28;20069;-71
2022/09/11 00:28:46;;;;;;;5.90;5.50;;;;;;;;;;5002347;28;20038;-71
2022/09/11 00:31:24;;;;;;;5.88;5.57;;;;;;;;;;4987223;28;20114;-71
2022/09/11 00:33:50;;;;;;;5.90;5.60;;;;;;;;;;4997324;28;20035;-71
2022/09/11 00:36:19;;;;;;;6.40;5.95;;;;;;;;;;5005910;28;20038;-71
2022/09/11 00:38:46;;;;;;;6.07;5.70;;;;;;;;;;5002337;28;20038;-71
2022/09/11 00:41:18;;;;;;;10.88;5.72;;;;;;;;;;4990450;28;20070;-71
2022/09/11 00:44:04;;;;;;;5.45;5.15;;;;;;;;;;4984855;28;20066;-71
2022/09/11 00:46:36;;;;;;;5.72;5.43;;;;;;;;;;5001068;28;20038;-71
2022/09/11 00:49:12;;;;;;;5.50;5.20;;;;;;;;;;4990140;28;20045;-71
2022/09/11 00:51:39;;;;;;;5.65;5.35;;;;;;;;;;4985357;28;20073;-71
2022/09/11 00:54:11;;;;;;;5.72;5.32;;;;;;;;;;4987028;28;20030;-71
2022/09/11 00:56:40;;;;;;;5.30;5.10;;;;;;;;;;4986812;28;20038;-71
2022/09/11 00:59:06;;;;;;;;;;;;;;;;;;4996864;28;20553;-71
2022/09/11 01:01:32;;;;;;;5.70;5.40;;;;;;;;;;4985631;28;20008;-71
2022/09/11 01:04:01;;;;;;;5.82;5.43;;;;;;;;;;4989830;28;20476;-71
2022/09/11 01:06:27;;;;;;;5.47;5.20;;;;;;;;;;4990682;28;20100;-71
2022/09/11 01:08:55;;;;;;;5.18;4.97;;;;;;;;;;5001488;28;20038;-71
2022/09/11 01:11:35;;;;;;;6.07;5.78;;;;;;;;;;4987483;28;20589;-71
2022/09/11 01:14:12;;;;;;;5.43;5.13;;;;;;;;;;4987576;28;20121;-71
2022/09/11 01:16:48;;;;;;;5.90;5.50;;;;;;;;;;4985841;28;20042;-71
2022/09/11 01:19:30;;;;;;;5.75;5.45;;;;;;;;;;4999417;28;20063;-71
2022/09/11 01:22:37;;;;;;;5.88;5.57;;;;;;;;;;4989303;28;20045;-71
2022/09/11 01:25:30;;;;;;;6.30;6.00;;;;;;;;;;4982759;28;20213;-71
2022/09/11 01:28:06;;;;;;;5.72;5.43;;;;;;;;;;4999481;28;20042;-71
2022/09/11 01:30:39;;;;;;;5.97;5.68;;;;;;;;;;5002485;28;20088;-71
2022/09/11 01:33:27;;;;;;;5.47;5.18;;;;;;;;;;5001034;28;20042;-71
2022/09/11 01:36:08;;;;;;;5.82;5.53;;;;;;;;;;5001907;28;20054;-71
2022/09/11 01:38:37;;;;;;;5.70;5.40;;;;;;;;;;4986251;28;20497;-71
2022/09/11 01:41:26;;;;;;;6.50;5.93;;;;;;;;;;4989777;28;20069;-71
2022/09/11 01:44:21;;;;;;;5.93;5.63;;;;;;;;;;5004274;28;20499;-71
2022/09/11 01:46:50;;;;;;;5.78;5.47;;;;;;;;;;4987738;28;20058;-71
2022/09/11 01:49:24;;;;;;;5.70;5.40;;;;;;;;;;5005805;28;20678;-71
2022/09/11 01:51:54;;;;;;;5.55;5.25;;;;;;;;;;5007255;28;20324;-71
2022/09/11 01:54:25;;;;;;;11.95;5.85;;;;;;;;;;4985730;28;20073;-71
2022/09/11 01:56:54;;;;;;;5.68;5.38;;;;;;;;;;4990723;28;20074;-71
2022/09/11 01:59:26;;;;;;;6.00;5.60;;;;;;;;;;5003952;28;20389;-71
2022/09/11 02:02:01;;;;;;;5.88;5.57;;;;;;;;;;4999066;28;20041;-70
2022/09/11 02:04:33;;;;;;;5.75;5.45;;;;;;;;;;5006150;28;20425;-70
2022/09/11 02:07:06;;;;;;;5.50;5.20;;;;;;;;;;5008732;28;20128;-71
2022/09/11 02:09:38;;;;;;;5.70;5.40;;;;;;;;;;5006015;28;20698;-71
2022/09/11 02:12:07;;;;;;;5.55;5.25;;;;;;;;;;4988104;28;20065;-71
2022/09/11 02:14:40;;;;;;;5.85;5.55;;;;;;;;;;5004700;28;20045;-71
2022/09/11 02:17:23;;;;;;;5.95;5.55;;;;;;;;;;4991334;28;20034;-71
2022/09/11 02:19:50;;;;;;;5.93;5.63;;;;;;;;;;4987413;28;20034;-71
2022/09/11 02:22:16;;;;;;;5.80;5.50;;;;;;;;;;5003043;28;20053;-71
2022/09/11 02:24:42;;;;;;;5.82;5.53;;;;;;;;;;4991182;28;20034;-71
2022/09/11 02:27:12;;;;;;;5.90;5.60;;;;;;;;;;5005478;28;20170;-71
2022/09/11 02:29:38;;;;;;;6.00;5.70;;;;;;;;;;4989919;28;20038;-71
2022/09/11 02:32:05;;;;;;;5.70;5.40;;;;;;;;;;4987530;28;20042;-71
2022/09/11 02:34:34;;;;;;;5.50;5.20;;;;;;;;;;4991950;28;20026;-71
2022/09/11 02:37:44;;;;;;;6.10;5.80;;;;;;;;;;4989033;28;20037;-71
2022/09/11 02:40:31;;;;;;;5.47;5.20;;;;;;;;;;4975092;28;20088;-71
2022/09/11 02:43:29;;;;;;;5.85;5.55;;;;;;;;;;4989503;28;20067;-71
2022/09/11 02:46:26;;;;;;;5.97;5.67;;;;;;;;;;4990331;28;20050;-71
2022/09/11 02:49:17;;;;;;;5.78;5.47;;;;;;;;;;4989860;28;20054;-71
2022/09/11 02:52:01;;;;;;;5.35;5.10;;;;;;;;;;5002114;28;20051;-71
2022/09/11 02:54:51;;;;;;;5.68;5.38;;;;;;;;;;5002788;28;20037;-71
2022/09/11 02:57:31;;;;;;;5.50;5.20;;;;;;;;;;5001934;28;20552;-71
2022/09/11 02:59:59;;;;;;;6.85;6.40;;;;;;;;;;4983626;28;20034;-71
2022/09/11 03:02:28;;;;;;;5.53;5.22;;;;;;;;;;5000668;28;20030;-71
2022/09/11 03:04:55;;;;;;;5.43;5.22;;;;;;;;;;5007594;28;20030;-71
2022/09/11 03:07:25;;;;;;;5.50;5.30;;;;;;;;;;4992093;28;20030;-71
2022/09/11 03:09:52;;;;;;;5.80;5.50;;;;;;;;;;4987406;28;20030;-71
2022/09/11 03:12:20;;;;;;;5.07;4.88;;;;;;;;;;4986573;28;20541;-71
2022/09/11 03:14:48;;;;;;;5.47;5.18;;;;;;;;;;5004630;28;20026;-71
2022/09/11 03:17:15;;;;;;;4.90;4.70;;;;;;;;;;4988826;28;20968;-71
2022/09/11 03:19:41;;;;;;;5.15;4.95;;;;;;;;;;5000368;28;20061;-71
2022/09/11 03:22:07;;;;;;;6.00;5.70;;;;;;;;;;5003148;28;20194;-71
2022/09/11 03:24:33;;;;;;;5.03;4.82;;;;;;;;;;4989434;28;20034;-71
2022/09/11 03:26:59;;;;;;;5.28;5.07;;;;;;;;;;5003466;28;20030;-71
2022/09/11 03:29:26;;;;;;;5.10;4.90;;;;;;;;;;5003014;28;20576;-71
2022/09/11 03:31:52;;;;;;;5.75;5.28;;;;;;;;;;4986011;28;20085;-71
2022/09/11 03:34:18;;;;;;;5.30;5.10;;;;;;;;;;5006357;28;20042;-71
2022/09/11 03:36:46;;;;;;;5.40;5.20;;;;;;;;;;5004639;28;20030;-71
2022/09/11 03:39:13;;;;;;;5.05;4.85;;;;;;;;;;4992527;28;20591;-71
2022/09/11 03:41:38;;;;;;;5.15;4.95;;;;;;;;;;4999647;28;20066;-71
2022/09/11 03:44:04;;;;;;;5.00;4.80;;;;;;;;;;4989185;28;20031;-71
2022/09/11 03:46:31;;;;;;;5.20;5.00;;;;;;;;;;5004600;28;20062;-71
2022/09/11 03:48:58;;;;;;;5.07;4.88;;;;;;;;;;5001533;28;20467;-71
2022/09/11 03:51:25;;;;;;;5.35;5.15;;;;;;;;;;4985377;28;20414;-71
2022/09/11 03:53:52;;;;;;;5.30;5.10;;;;;;;;;;4991267;28;20119;-71
2022/09/11 03:56:19;;;;;;;5.13;4.93;;;;;;;;;;5002222;28;20042;-71
2022/09/11 03:58:47;;;;;;;4.90;4.70;;;;;;;;;;4980887;28;20058;-71
2022/09/11 04:01:14;;;;;;;4.75;4.55;;;;;;;;;;5002083;28;20075;-71
2022/09/11 04:03:41;;;;;;;5.20;5.00;;;;;;;;;;5001749;28;20112;-71
2022/09/11 04:06:12;;;;;;;4.93;4.72;;;;;;;;;;5004491;28;20061;-71
2022/09/11 04:08:40;;;;;;;5.05;4.85;;;;;;;;;;4985876;28;20110;-71
2022/09/11 04:11:10;;;;;;;5.20;5.00;;;;;;;;;;5004909;28;20129;-71
2022/09/11 04:13:38;;;;;;;5.30;5.10;;;;;;;;;;4987230;28;20030;-71
2022/09/11 04:16:10;;;;;;;5.32;5.13;;;;;;;;;;5000086;28;20052;-71
2022/09/11 04:18:39;;;;;;;4.55;4.35;;;;;;;;;;5000978;28;20084;-71
2022/09/11 04:21:09;;;;;;;4.85;4.65;;;;;;;;;;5003235;28;20072;-71
2022/09/11 04:23:35;;;;;;;4.97;4.78;;;;;;;;;;5004064;28;20034;-71
2022/09/11 04:26:01;;;;;;;5.05;4.85;;;;;;;;;;5002616;28;20046;-71
2022/09/11 04:28:30;;;;;;;5.10;4.90;;;;;;;;;;5003432;28;20041;-71
2022/09/11 04:31:02;;;;;;;5.43;5.22;;;;;;;;;;4988081;28;20043;-71
2022/09/11 04:33:30;;;;;;;5.18;4.97;;;;;;;;;;5000771;28;20093;-71
2022/09/11 04:35:56;;;;;;;5.38;5.18;;;;;;;;;;5001557;28;20048;-71
2022/09/11 04:38:22;;;;;;;5.20;5.00;;;;;;;;;;5002984;28;20043;-72
2022/09/11 04:40:48;;;;;;;5.18;4.97;;;;;;;;;;5002144;28;20040;-72
2022/09/11 04:43:16;;;;;;;5.47;5.28;;;;;;;;;;5000745;28;20065;-71
2022/09/11 04:45:43;;;;;;;5.03;4.82;;;;;;;;;;5004816;28;20053;-72
2022/09/11 04:48:10;;;;;;;5.25;5.05;;;;;;;;;;5003232;28;20687;-72
2022/09/11 04:50:36;;;;;;;5.10;4.90;;;;;;;;;;5003069;28;20109;-72
2022/09/11 04:53:20;;;;;;;5.60;5.40;;;;;;;;;;5002268;28;20038;-72
2022/09/11 04:55:46;;;;;;;5.50;5.30;;;;;;;;;;5004877;28;20066;-72
2022/09/11 04:58:13;;;;;;;5.53;5.32;;;;;;;;;;5003393;28;20038;-72
2022/09/11 05:00:39;;;;;;;5.90;5.60;;;;;;;;;;4997233;28;20096;-72
2022/09/11 05:03:05;;;;;;;5.47;5.28;;;;;;;;;;5001720;28;20161;-72
2022/09/11 05:05:31;;;;;;;5.32;5.13;;;;;;;;;;5005625;28;20097;-72
2022/09/11 05:07:57;;;;;;;5.20;5.00;;;;;;;;;;5003536;28;20037;-72
2022/09/11 05:10:22;;;;;;;5.38;5.18;;;;;;;;;;5003117;28;20030;-72
2022/09/11 05:12:50;;;;;;;5.32;5.13;;;;;;;;;;5006575;28;20504;-72
2022/09/11 05:15:19;;;;;;;5.40;5.20;;;;;;;;;;5010957;28;20080;-72
2022/09/11 05:17:47;;;;;;;5.43;5.22;;;;;;;;;;5005036;28;20061;-72
2022/09/11 05:20:13;;;;;;;5.25;5.05;;;;;;;;;;4989823;28;20034;-72
2022/09/11 05:22:38;;;;;;;5.80;5.50;;;;;;;;;;5009143;28;20041;-72
2022/09/11 05:25:04;;;;;;;5.65;5.43;;;;;;;;;;4988233;28;20058;-72
2022/09/11 05:27:30;;;;;;;5.55;5.35;;;;;;;;;;5002658;28;20038;-72
2022/09/11 05:29:56;;;;;;;5.30;5.10;;;;;;;;;;5004498;28;20110;-72
2022/09/11 05:32:23;;;;;;;5.45;5.25;;;;;;;;;;4994286;28;20209;-72
2022/09/11 05:34:49;;;;;;;5.30;5.10;;;;;;;;;;5006838;28;20083;-72
2022/09/11 05:37:16;;;;;;;5.65;5.43;;;;;;;;;;4993575;28;20090;-72
2022/09/11 05:39:44;;;;;;;5.53;5.32;;;;;;;;;;5003578;28;20042;-71
2022/09/11 05:42:11;;;;;;;5.40;5.20;;;;;;;;;;4985967;28;20053;-71
2022/09/11 05:44:40;;;;;;;5.50;5.30;;;;;;;;;;5005508;28;20486;-71
2022/09/11 05:47:06;;;;;;;5.80;5.50;;;;;;;;;;4983277;28;20073;-72
2022/09/11 05:49:31;;;;;;;6.00;5.70;;;;;;;;;;5007816;28;20026;-71
2022/09/11 05:51:59;;;;;;;5.60;5.40;;;;;;;;;;5006278;28;20030;-71
2022/09/11 05:54:26;;;;;;;6.07;5.78;;;;;;;;;;5007934;28;20165;-71
2022/09/11 05:56:54;;;;;;;6.00;5.70;;;;;;;;;;5004431;28;20045;-71
2022/09/11 05:59:23;;;;;;;5.93;5.63;;;;;;;;;;5002050;28;20030;-71
2022/09/11 06:01:49;;;;;;;5.68;5.45;;;;;;;;;;5006061;28;20034;-72
2022/09/11 06:04:23;;;;;;;5.50;5.30;;;;;;;;;;5001136;28;20034;-72
2022/09/11 06:06:51;;;;;;;5.78;5.47;;;;;;;;;;4989026;28;20132;-72
2022/09/11 06:09:17;;;;;;;5.45;5.25;;;;;;;;;;5007601;28;20042;-71
2022/09/11 06:11:43;;;;;;;5.95;5.65;;;;;;;;;;5005363;28;20049;-71
2022/09/11 06:14:11;;;;;;;5.97;5.68;;;;;;;;;;5006451;28;20034;-72
2022/09/11 06:16:37;;;;;;;5.97;5.67;;;;;;;;;;5001520;28;20045;-72
2022/09/11 06:19:09;;;;;;;5.45;5.25;;;;;;;;;;5004131;28;20038;-71
2022/09/11 06:21:35;;;;;;;6.00;5.70;;;;;;;;;;4990227;28;20382;-71
2022/09/11 06:24:14;;;;;;;5.90;5.60;;;;;;;;;;5001821;28;20628;-71
2022/09/11 06:26:40;;;;;;;5.50;5.30;;;;;;;;;;5003325;28;20121;-71
2022/09/11 06:29:06;;;;;;;5.30;5.10;;;;;;;;;;4989315;28;20526;-71
2022/09/11 06:31:34;;;;;;;5.68;5.43;;;;;;;;;;5001916;28;20030;-71
2022/09/11 06:34:00;;;;;;;5.63;5.40;;;;;;;;;;5003885;28;20034;-71
2022/09/11 06:36:26;;;;;;;5.40;5.20;;;;;;;;;;4999326;28;20038;-72
2022/09/11 06:38:54;;;;;;;6.00;5.70;;;;;;;;;;5003557;28;20109;-72
2022/09/11 06:41:23;;;;;;;5.90;5.60;;;;;;;;;;4985561;28;20105;-71
2022/09/11 06:43:52;;;;;;;5.60;5.40;;;;;;;;;;5000597;28;20042;-72
2022/09/11 06:46:20;;;;;;;5.50;5.30;;;;;;;;;;4989276;28;20042;-72
2022/09/11 06:48:48;;;;;;;5.80;5.50;;;;;;;;;;4985724;28;20093;-72
2022/09/11 06:51:17;;;;;;;6.00;5.70;;;;;;;;;;4999485;28;20406;-72
2022/09/11 06:53:44;;;;;;;5.40;5.20;;;;;;;;;;4990448;28;20036;-72
2022/09/11 06:56:13;;;;;;;5.70;5.43;;;;;;;;;;5002670;28;20082;-72
2022/09/11 06:58:42;;;;;;;5.30;5.10;;;;;;;;;;5001272;28;20042;-72
2022/09/11 07:01:19;;;;;;;5.33;5.13;;;;;;;;;;5002770;28;20042;-72
2022/09/11 07:03:52;;;;;;;5.40;5.20;;;;;;;;;;5000566;28;20309;-72
2022/09/11 07:06:24;;;;;;;5.47;5.28;;;;;;;;;;4987703;28;20035;-71
2022/09/11 07:08:51;;;;;;;5.80;5.50;;;;;;;;;;5005792;28;20038;-72
2022/09/11 07:11:18;;;;;;;5.10;4.90;;;;;;;;;;5001699;28;20097;-72
2022/09/11 07:13:44;;;;;;;5.20;5.00;;;;;;;;;;5004062;28;20030;-71
2022/09/11 07:16:12;;;;;;;5.10;4.90;;;;;;;;;;5004899;28;20220;-72
2022/09/11 07:18:40;;;;;;;;;;;;;;;;;;5003131;28;20371;-72
2022/09/11 07:21:22;;;;;;;5.25;5.05;;;;;;;;;;5004996;28;19975;-72
2022/09/11 07:23:54;;;;;;;5.30;5.10;;;;;;;;;;5001860;28;20379;-72
2022/09/11 07:26:22;;;;;;;5.18;4.97;;;;;;;;;;5005174;28;20046;-72
2022/09/11 07:28:51;;;;;;;5.18;4.97;;;;;;;;;;5001178;28;20081;-71
2022/09/11 07:31:22;;;;;;;5.10;4.90;;;;;;;;;;5004221;28;20054;-71
2022/09/11 07:33:51;;;;;;;4.90;4.70;;;;;;;;;;5004102;28;20061;-71
2022/09/11 07:36:19;;;;;;;5.18;4.97;;;;;;;;;;5003046;28;20129;-71
2022/09/11 07:38:49;;;;;;;5.10;4.90;;;;;;;;;;5005765;28;20493;-72
2022/09/11 07:41:18;;;;;;;5.25;5.05;;;;;;;;;;5003073;28;20046;-71
2022/09/11 07:43:47;;;;;;;5.28;5.07;;;;;;;;;;5004703;28;20077;-71
2022/09/11 07:46:13;;;;;;;5.82;5.53;;;;;;;;;;5001186;28;20062;-71
2022/09/11 07:48:41;;;;;;;5.20;5.00;;;;;;;;;;5005267;28;20034;-72
2022/09/11 07:51:10;;;;;;;5.47;5.28;;;;;;;;;;4999479;28;20371;-71
2022/09/11 07:53:47;;;;;;;5.63;5.43;;;;;;;;;;5004131;28;20066;-71
2022/09/11 07:56:17;;;;;;;5.78;5.50;;;;;;;;;;4991027;28;20044;-72
2022/09/11 07:58:43;;;;;;;5.28;5.07;;;;;;;;;;4987588;28;20401;-72
2022/09/11 08:01:12;;;;;;;6.10;5.80;;;;;;;;;;5004045;28;20413;-72
2022/09/11 08:03:39;;;;;;;5.30;5.10;;;;;;;;;;5004575;28;20382;-71
2022/09/11 08:06:18;;;;;;;5.20;5.00;;;;;;;;;;4986240;28;20037;-72
2022/09/11 08:08:51;;;;;;;5.32;5.13;;;;;;;;;;5003031;28;20118;-72
2022/09/11 08:11:16;;;;;;;5.90;5.60;;;;;;;;;;4987116;28;20039;-71
2022/09/11 08:13:46;;;;;;;5.18;4.97;;;;;;;;;;5003763;28;20026;-72
2022/09/11 08:16:11;;;;;;;;;;;;;;;;;;5003137;28;20050;-72
2022/09/11 08:18:37;;;;;;;4.90;4.70;;;;;;;;;;5001027;28;19914;-72
2022/09/11 08:21:07;;;;;;;4.90;4.70;;;;;;;;;;5000805;28;20122;-72
2022/09/11 08:23:33;;;;;;;5.10;4.90;;;;;;;;;;5000529;28;20070;-71
2022/09/11 08:26:08;;;;;;;4.97;4.78;;;;;;;;;;4987766;28;20038;-71
2022/09/11 08:28:37;;;;;;;4.97;4.78;;;;;;;;;;4987166;28;20045;-72
2022/09/11 08:31:05;;;;;;;5.10;4.90;;;;;;;;;;5004541;28;20042;-71
2022/09/11 08:33:34;;;;;;;4.90;4.70;;;;;;;;;;5001279;28;20116;-72
2022/09/11 08:36:04;;;;;;;5.25;5.05;;;;;;;;;;5005111;28;20087;-71
2022/09/11 08:38:32;;;;;;;5.05;4.85;;;;;;;;;;4999993;28;20038;-71
2022/09/11 08:41:24;;;;;;;5.40;5.20;;;;;;;;;;5001236;28;20110;-72
2022/09/11 08:43:57;;;;;;;5.60;5.40;;;;;;;;;;5002653;28;20089;-72
2022/09/11 08:46:31;;;;;;;5.18;4.97;;;;;;;;;;4984270;28;20042;-72
2022/09/11 08:49:33;;;;;;;6.43;6.13;;;;;;;;;;4999567;28;20042;-72
2022/09/11 08:52:01;;;;;;;5.55;5.35;;;;;;;;;;5003097;28;20034;-72
2022/09/11 08:54:37;;;;;;;5.40;5.20;;;;;;;;;;5000628;28;20474;-72
2022/09/11 08:57:15;;;;;;;5.75;5.47;;;;;;;;;;4981637;28;20448;-72
2022/09/11 09:00:27;;;;;;;5.00;4.80;;;;;;;;;;5001537;28;20397;-73
2022/09/11 09:03:55;;;;;;;5.55;5.35;;;;;;;;;;5000027;28;20062;-74
2022/09/11 09:06:41;;;;;;;5.88;5.57;;;;;;;;;;4937600;28;20086;-72
2022/09/11 09:09:33;;;;;;;5.03;4.82;;;;;;;;;;4971847;28;20486;-74
2022/09/11 09:12:33;;;;;;;4.80;4.60;;;;;;;;;;4992049;28;20046;-73
2022/09/11 09:15:23;;;;;;;5.18;4.97;;;;;;;;;;4988056;28;20632;-72
2022/09/11 09:18:00;;;;;;;5.20;5.00;;;;;;;;;;5001955;28;20132;-72
2022/09/11 09:20:32;;;;;;;4.95;4.75;;;;;;;;;;4984102;28;20042;-71
2022/09/11 09:23:34;;;;;;;5.55;5.35;;;;;;;;;;5000283;28;20038;-72
2022/09/11 09:26:00;;;;;;;5.50;5.30;;;;;;;;;;4946620;28;20050;-72
2022/09/11 09:28:38;;;;;;;5.75;5.45;;;;;;;;;;4931888;29;20039;-72
2022/09/11 09:31:09;;;;;;;5.87;5.57;;;;;;;;;;4939838;28;20570;-71
2022/09/11 09:33:47;;;;;;;5.90;5.60;;;;;;;;;;4944685;28;20499;-72
2022/09/11 09:36:16;;;;;;;;;;;;;;;;;;4948317;28;20426;-71
2022/09/11 09:38:43;;;;;;;6.00;5.70;;;;;;;;;;4942746;28;19997;-71
2022/09/11 09:41:20;;;;;;;5.85;5.55;;;;;;;;;;4945056;28;20058;-71
2022/09/11 09:43:49;;;;;;;5.95;5.65;;;;;;;;;;4945403;28;20238;-72
2022/09/11 09:46:33;;;;;;;6.75;6.45;;;;;;;;;;4942760;28;20035;-73
2022/09/11 09:48:59;;;;;;;6.25;5.95;;;;;;;;;;4943137;28;20058;-73
2022/09/11 09:51:25;;;;;;;6.05;5.75;;;;;;;;;;4943074;28;20039;-73
2022/09/11 09:53:59;;;;;;;6.07;5.78;;;;;;;;;;4945013;28;20035;-73
2022/09/11 09:56:26;;;;;;;5.32;5.13;;;;;;;;;;4948392;28;20471;-73
2022/09/11 09:59:01;;;;;;;5.15;4.95;;;;;;;;;;4948928;28;20558;-73
2022/09/11 10:01:45;;;;;;;5.10;4.90;;;;;;;;;;4948709;28;20459;-74
2022/09/11 10:04:26;;;;;;;4.95;4.75;;;;;;;;;;4989608;28;20042;-74
2022/09/11 10:07:03;;;;;;;4.18;3.97;;;;;;;;;;4988500;28;20393;-72
2022/09/11 10:09:29;;;;;;;4.60;4.40;;;;;;;;;;4988855;28;20157;-72
2022/09/11 10:12:05;;;;;;;4.90;4.70;;;;;;;;;;4988889;28;20034;-72
2022/09/11 10:14:49;;;;;;;4.80;4.60;;;;;;;;;;4988926;28;20553;-72
2022/09/11 10:17:29;;;;;;;4.93;4.72;;;;;;;;;;4120561;28;10000512;-71
2022/09/11 10:20:20;;;;;;;5.20;5.00;;;;;;;;;;4981953;28;20536;-71
2022/09/11 10:22:46;;;;;;;5.65;5.40;;;;;;;;;;4991851;28;20040;-71
2022/09/11 10:25:13;;;;;;;6.28;5.97;;;;;;;;;;4992166;28;20061;-71
2022/09/11 10:28:02;;;;;;;6.18;5.88;;;;;;;;;;4988252;28;20093;-71
2022/09/11 10:30:30;;;;;;;5.82;5.53;;;;;;;;;;4984943;28;20042;-71
2022/09/11 10:32:57;;;;;;;5.80;5.50;;;;;;;;;;4991233;28;20039;-71
2022/09/11 10:35:26;;;;;;;5.60;5.40;;;;;;;;;;4994096;28;20118;-72
2022/09/11 10:38:17;;;;;;;5.55;5.35;;;;;;;;;;4990818;28;20041;-72
2022/09/11 10:40:56;;;;;;;5.75;5.45;;;;;;;;;;4991082;28;20041;-71
2022/09/11 10:43:27;;;;;;;4.88;4.68;;;;;;;;;;4991676;28;20041;-72
2022/09/11 10:46:05;;;;;;;5.80;5.50;;;;;;;;;;4987279;28;20041;-72
2022/09/11 10:48:31;;;;;;;6.10;5.80;;;;;;;;;;5006035;28;20775;-74
2022/09/11 10:51:10;;;;;;;5.22;5.03;;;;;;;;;;4991358;28;20034;-72
2022/09/11 10:53:52;;;;;;;5.40;5.20;;;;;;;;;;4984445;28;20030;-74
2022/09/11 10:56:19;;;;;;;5.10;4.90;;;;;;;;;;4989357;28;20046;-74
2022/09/11 10:58:48;;;;;;;5.40;5.20;;;;;;;;;;4987102;28;20049;-74
2022/09/11 11:01:14;;;;;;;5.07;4.88;;;;;;;;;;4988872;28;20064;-72
2022/09/11 11:03:39;;;;;;;5.13;4.93;;;;;;;;;;4985932;28;20434;-72
2022/09/11 11:06:31;;;;;;;5.10;4.90;;;;;;;;;;4991914;28;20096;-72
2022/09/11 11:09:07;;;;;;;5.35;5.15;;;;;;;;;;4986689;28;20088;-72
2022/09/11 11:11:51;;;;;;;5.97;5.68;;;;;;;;;;4991138;28;20049;-72
2022/09/11 11:14:36;;;;;;;5.75;5.45;;;;;;;;;;4990100;28;20046;-72
2022/09/11 11:17:14;;;;;;;6.22;5.93;;;;;;;;;;4989224;28;20054;-72
2022/09/11 11:20:28;;;;;;;6.00;5.70;;;;;;;;;;4989749;28;20042;-73
2022/09/11 11:23:13;;;;;;;5.50;5.30;;;;;;;;;;4943457;28;20101;-72
2022/09/11 11:26:12;;;;;;;5.88;5.57;;;;;;;;;;4944400;28;20122;-72
2022/09/11 11:28:51;;;;;;;5.32;5.13;;;;;;;;;;4906791;28;20614;-72
2022/09/11 11:31:38;;;;;;;4.80;4.60;;;;;;;;;;4941813;28;22056;-73
2022/09/11 11:34:55;;;;;;;4.70;4.50;;;;;;;;;;4938091;28;20047;-73
2022/09/11 11:37:41;;;;;;;4.80;4.60;;;;;;;;;;4925340;28;20167;-72
2022/09/11 11:40:27;;;;;;;5.22;5.03;;;;;;;;;;4940566;29;20047;-72
2022/09/11 11:43:02;;;;;;;5.10;4.90;;;;;;;;;;4940874;28;20705;-73
2022/09/11 11:45:39;;;;;;;5.43;5.22;;;;;;;;;;4942435;28;20665;-73
2022/09/11 11:48:12;;;;;;;5.07;4.88;;;;;;;;;;4941442;28;20162;-73
2022/09/11 11:50:40;;;;;;;5.10;4.90;;;;;;;;;;4937688;28;20146;-73
2022/09/11 11:53:27;;;;;;;5.00;4.80;;;;;;;;;;4938221;29;20051;-71
2022/09/11 11:56:06;;;;;;;4.65;4.45;;;;;;;;;;4933069;28;20046;-72
2022/09/11 11:58:59;;;;;;;4.13;3.92;;;;;;;;;;4984048;28;20061;-73
2022/09/11 12:01:42;;;;;;;4.32;4.13;;;;;;;;;;4984982;28;20034;-72
2022/09/11 12:04:11;;;;;;;4.30;4.10;;;;;;;;;;4986253;28;20045;-73
2022/09/11 12:06:37;;;;;;;4.65;4.45;;;;;;;;;;4984877;28;20038;-72
2022/09/11 12:09:04;;;;;;;4.70;4.50;;;;;;;;;;4987036;28;20145;-72
2022/09/11 12:11:31;;;;;;;4.90;4.70;;;;;;;;;;4986277;28;20049;-72
2022/09/11 12:13:58;;;;;;;5.10;4.90;;;;;;;;;;5003657;28;20030;-72
2022/09/11 12:16:32;;;;;;;4.97;4.78;;;;;;;;;;4980704;28;20117;-72
2022/09/11 12:19:06;;;;;;;4.57;4.38;;;;;;;;;;4986987;28;20395;-72
2022/09/11 12:21:36;;;;;;;4.80;4.60;;;;;;;;;;4986396;28;20049;-73
2022/09/11 12:24:02;;;;;;;5.05;4.85;;;;;;;;;;4984479;28;20414;-72
2022/09/11 12:26:29;;;;;;;6.20;5.90;;;;;;;;;;4989348;28;20045;-72
2022/09/11 12:29:11;;;;;;;5.85;5.55;;;;;;;;;;5016206;28;20039;-72
2022/09/11 12:31:48;;;;;;;5.80;5.50;;;;;;;;;;4987924;28;20065;-72
2022/09/11 12:34:16;;;;;;;5.85;5.55;;;;;;;;;;4983839;28;20045;-72
2022/09/11 12:36:52;;;;;;;5.85;5.55;;;;;;;;;;4987149;28;20044;-72
2022/09/11 12:39:36;;;;;;;5.32;5.13;;;;;;;;;;4989802;28;20045;-72
2022/09/11 12:42:24;;;;;;;5.13;4.93;;;;;;;;;;4987735;28;20422;-72
2022/09/11 12:44:49;;;;;;;5.82;5.53;;;;;;;;;;4985247;28;20030;-72
2022/09/11 12:47:33;;;;;;;5.38;5.18;;;;;;;;;;4986001;28;20042;-72
2022/09/11 12:50:13;;;;;;;5.97;5.68;;;;;;;;;;5006395;28;20111;-72
2022/09/11 12:52:45;;;;;;;6.13;5.82;;;;;;;;;;4982964;28;20550;-72
2022/09/11 12:55:38;;;;;;;5.32;5.13;;;;;;;;;;4985006;28;20034;-72
2022/09/11 12:58:24;;;;;;;5.10;4.90;;;;;;;;;;4987092;28;20089;-72
2022/09/11 13:01:04;;;;;;;5.55;5.35;;;;;;;;;;4983138;28;20042;-72
2022/09/11 13:03:31;;;;;;;5.55;5.35;;;;;;;;;;4987429;28;20030;-72
2022/09/11 13:06:02;;;;;;;5.30;5.10;;;;;;;;;;4987838;28;20035;-72
2022/09/11 13:08:32;;;;;;;4.95;4.75;;;;;;;;;;4987836;28;20042;-72
2022/09/11 13:11:48;;;;;;;5.22;5.03;;;;;;;;;;4986237;28;20490;-72
2022/09/11 13:14:37;;;;;;;4.53;4.32;;;;;;;;;;5000699;28;20133;-72
2022/09/11 13:17:12;;;;;;;5.15;4.95;;;;;;;;;;4985396;28;20046;-70
2022/09/11 13:19:38;;;;;;;5.03;4.82;;;;;;;;;;4983411;28;20117;-72
2022/09/11 13:22:29;;;;;;;5.40;5.20;;;;;;;;;;4984342;28;20117;-71
2022/09/11 13:25:14;;;;;;;5.00;4.80;;;;;;;;;;5002517;28;20038;-73
2022/09/11 13:27:44;;;;;;;5.40;5.20;;;;;;;;;;4987982;28;20038;-72
2022/09/11 13:30:18;;;;;;;5.35;5.15;;;;;;;;;;4990473;28;20044;-74
2022/09/11 13:32:49;;;;;;;5.00;4.80;;;;;;;;;;4952329;28;20412;-74
2022/09/11 13:35:24;;;;;;;5.25;5.05;;;;;;;;;;4998187;28;20036;-72
2022/09/11 13:38:09;;;;;;;5.20;5.00;;;;;;;;;;5020449;28;20042;-72
2022/09/11 13:40:44;;;;;;;5.50;5.30;;;;;;;;;;4987383;28;20071;-71
2022/09/11 13:43:16;;;;;;;5.53;5.32;;;;;;;;;;4990779;28;20053;-73
2022/09/11 13:45:41;;;;;;;5.05;4.85;;;;;;;;;;4989642;28;20106;-73
2022/09/11 13:48:19;;;;;;;5.18;4.97;;;;;;;;;;4988277;28;20159;-72
2022/09/11 13:50:45;;;;;;;5.05;4.85;;;;;;;;;;4988634;28;20030;-73
2022/09/11 13:53:11;;;;;;;4.90;4.70;;;;;;;;;;4989214;28;20066;-73
2022/09/11 13:55:36;;;;;;;5.10;4.90;;;;;;;;;;4986904;28;20105;-72
2022/09/11 13:58:02;;;;;;;5.28;5.07;;;;;;;;;;4989097;28;20054;-72
2022/09/11 14:00:40;;;;;;;5.50;5.30;;;;;;;;;;4992060;28;20034;-73
2022/09/11 14:03:21;;;;;;;5.38;5.18;;;;;;;;;;4990768;28;20435;-73
2022/09/11 14:05:56;;;;;;;5.15;4.95;;;;;;;;;;4997563;28;20042;-75
2022/09/11 14:08:52;;;;;;;5.00;4.80;;;;;;;;;;4987562;28;20576;-72
2022/09/11 14:11:30;;;;;;;5.72;5.43;;;;;;;;;;4975047;28;20438;-71
2022/09/11 14:14:18;;;;;;;5.00;4.80;;;;;;;;;;4992830;28;20041;-72
2022/09/11 14:16:49;;;;;;;5.30;5.10;;;;;;;;;;4990571;28;20049;-72
2022/09/11 14:19:23;;;;;;;5.45;5.25;;;;;;;;;;4989452;28;20533;-72
2022/09/11 14:21:50;;;;;;;5.78;5.47;;;;;;;;;;4988604;28;20041;-72
2022/09/11 14:24:33;;;;;;;5.25;5.05;;;;;;;;;;4981811;28;20050;-72
2022/09/11 14:27:19;;;;;;;5.40;5.20;;;;;;;;;;4989145;28;20046;-73
2022/09/11 14:29:52;;;;;;;5.85;5.55;;;;;;;;;;4988478;28;20080;-72
2022/09/11 14:32:26;;;;;;;6.38;6.07;;;;;;;;;;4987560;28;20070;-72
2022/09/11 14:34:52;;;;;;;6.10;5.80;;;;;;;;;;4994264;28;20544;-72
2022/09/11 14:37:18;;;;;;;5.93;5.63;;;;;;;;;;4989095;28;20045;-72
2022/09/11 14:39:57;;;;;;;5.90;5.60;;;;;;;;;;4984266;28;20034;-72
2022/09/11 14:42:30;;;;;;;6.50;6.20;;;;;;;;;;4982641;28;20120;-72
2022/09/11 14:44:56;;;;;;;6.20;5.90;;;;;;;;;;4989232;28;20153;-72
2022/09/11 14:47:24;;;;;;;6.15;5.85;;;;;;;;;;4988199;28;20560;-72
2022/09/11 14:49:54;;;;;;;6.15;5.85;;;;;;;;;;4987164;28;20073;-71
2022/09/11 14:52:26;;;;;;;6.72;6.43;;;;;;;;;;4983252;28;20057;-72
2022/09/11 14:54:52;;;;;;;6.07;5.78;;;;;;;;;;4986274;28;20039;-72
2022/09/11 14:57:29;;;;;;;6.00;5.70;;;;;;;;;;4987784;28;20045;-72
2022/09/11 14:59:55;;;;;;;5.82;5.53;;;;;;;;;;4992744;28;20033;-71
2022/09/11 15:02:23;;;;;;;5.88;5.57;;;;;;;;;;4988708;28;20026;-71
2022/09/11 15:04:50;;;;;;;6.18;5.88;;;;;;;;;;4989242;28;20038;-71
2022/09/11 15:07:22;;;;;;;6.18;5.88;;;;;;;;;;4983221;28;20648;-71
2022/09/11 15:09:48;;;;;;;6.20;5.90;;;;;;;;;;4986458;28;20485;-74
2022/09/11 15:12:14;;;;;;;6.55;6.25;;;;;;;;;;4987478;28;20034;-73
2022/09/11 15:14:42;;;;;;;6.05;5.75;;;;;;;;;;5005514;28;20421;-72
2022/09/11 15:17:10;;;;;;;6.00;5.70;;;;;;;;;;4991673;28;20083;-71
2022/09/11 15:19:37;;;;;;;6.82;6.45;;;;;;;;;;4986904;28;20037;-72